sensor_id;sensor_type;location;lat;lon;timestamp;temperature;humidity
35894;DHT22;21994;48.204;16.516;2023-07-02T00:00:38;19.20;99.90
35894;DHT22;21994;48.204;16.516;2023-07-02T00:03:04;19.20;99.90
35894;DHT22;21994;48.204;16.516;2023-07-02T00:05:30;19.10;99.90
35894;DHT22;21994;48.204;16.516;2023-07-02T00:07:56;19.10;99.90
35894;DHT22;21994;48.204;16.516;2023-07-02T00:10:22;19.20;99.90
35894;DHT22;21994;48.204;16.516;2023-07-02T00:12:48;19.10;99.90
35894;DHT22;21994;48.204;16.516;2023-07-02T00:15:14;19.30;99.90
35894;DHT22;21994;48.204;16.516;2023-07-02T00:17:40;19.30;99.90
35894;DHT22;21994;48.204;16.516;2023-07-02T00:20:07;19.30;99.90
35894;DHT22;21994;48.204;16.516;2023-07-02T00:22:34;19.40;99.90
35894;DHT22;21994;48.204;16.516;2023-07-02T00:25:01;19.50;99.90
35894;DHT22;21994;48.204;16.516;2023-07-02T00:27:27;19.60;99.90
35894;DHT22;21994;48.204;16.516;2023-07-02T00:29:53;19.90;99.90
35894;DHT22;21994;48.204;16.516;2023-07-02T00:32:18;20.10;99.90
35894;DHT22;21994;48.204;16.516;2023-07-02T00:34:44;20.20;99.90
35894;DHT22;21994;48.204;16.516;2023-07-02T00:37:10;20.30;99.90
35894;DHT22;21994;48.204;16.516;2023-07-02T00:39:35;20.50;99.90
35894;DHT22;21994;48.204;16.516;2023-07-02T00:42:02;20.50;99.90
35894;DHT22;21994;48.204;16.516;2023-07-02T00:44:28;20.60;99.80
35894;DHT22;21994;48.204;16.516;2023-07-02T00:46:53;20.70;99.80
35894;DHT22;21994;48.204;16.516;2023-07-02T00:49:19;20.70;99.90
35894;DHT22;21994;48.204;16.516;2023-07-02T00:51:45;20.80;99.90
35894;DHT22;21994;48.204;16.516;2023-07-02T00:54:11;20.80;99.90
35894;DHT22;21994;48.204;16.516;2023-07-02T00:56:37;20.70;99.90
35894;DHT22;21994;48.204;16.516;2023-07-02T00:59:03;20.60;99.90
35894;DHT22;21994;48.204;16.516;2023-07-02T01:01:29;20.60;99.90
35894;DHT22;21994;48.204;16.516;2023-07-02T01:03:59;20.70;99.90
35894;DHT22;21994;48.204;16.516;2023-07-02T01:06:26;20.70;99.90
35894;DHT22;21994;48.204;16.516;2023-07-02T01:08:54;20.60;99.90
35894;DHT22;21994;48.204;16.516;2023-07-02T01:11:21;20.50;99.90
35894;DHT22;21994;48.204;16.516;2023-07-02T01:13:49;20.50;99.90
35894;DHT22;21994;48.204;16.516;2023-07-02T01:16:17;20.40;99.90
35894;DHT22;21994;48.204;16.516;2023-07-02T01:18:42;20.40;99.90
35894;DHT22;21994;48.204;16.516;2023-07-02T01:21:09;20.40;99.90
35894;DHT22;21994;48.204;16.516;2023-07-02T01:23:34;20.30;99.90
35894;DHT22;21994;48.204;16.516;2023-07-02T01:26:00;20.40;99.90
35894;DHT22;21994;48.204;16.516;2023-07-02T01:28:33;20.50;99.90
35894;DHT22;21994;48.204;16.516;2023-07-02T01:31:00;20.50;99.90
35894;DHT22;21994;48.204;16.516;2023-07-02T01:33:26;20.50;99.90
35894;DHT22;21994;48.204;16.516;2023-07-02T01:35:51;20.50;99.90
35894;DHT22;21994;48.204;16.516;2023-07-02T01:38:17;20.60;99.90
35894;DHT22;21994;48.204;16.516;2023-07-02T01:40:43;20.50;99.90
35894;DHT22;21994;48.204;16.516;2023-07-02T01:43:09;20.50;99.90
35894;DHT22;21994;48.204;16.516;2023-07-02T01:45:37;20.60;99.90
35894;DHT22;21994;48.204;16.516;2023-07-02T01:48:03;20.50;99.90
35894;DHT22;21994;48.204;16.516;2023-07-02T01:50:29;20.50;99.90
35894;DHT22;21994;48.204;16.516;2023-07-02T01:52:55;20.50;99.90
35894;DHT22;21994;48.204;16.516;2023-07-02T01:55:20;20.40;99.90
35894;DHT22;21994;48.204;16.516;2023-07-02T01:57:46;20.40;99.90
35894;DHT22;21994;48.204;16.516;2023-07-02T02:00:12;20.40;99.90
35894;DHT22;21994;48.204;16.516;2023-07-02T02:02:38;20.30;99.90
35894;DHT22;21994;48.204;16.516;2023-07-02T02:05:04;20.30;99.90
35894;DHT22;21994;48.204;16.516;2023-07-02T02:07:30;20.20;99.90
35894;DHT22;21994;48.204;16.516;2023-07-02T02:09:57;20.20;99.90
35894;DHT22;21994;48.204;16.516;2023-07-02T02:12:23;20.20;99.90
35894;DHT22;21994;48.204;16.516;2023-07-02T02:14:49;20.10;99.90
35894;DHT22;21994;48.204;16.516;2023-07-02T02:17:15;20.00;99.90
35894;DHT22;21994;48.204;16.516;2023-07-02T02:19:40;20.00;99.90
35894;DHT22;21994;48.204;16.516;2023-07-02T02:22:06;20.00;99.90
35894;DHT22;21994;48.204;16.516;2023-07-02T02:24:32;19.90;99.90
35894;DHT22;21994;48.204;16.516;2023-07-02T02:26:57;19.80;99.90
35894;DHT22;21994;48.204;16.516;2023-07-02T02:29:23;19.70;99.90
35894;DHT22;21994;48.204;16.516;2023-07-02T02:31:49;19.60;99.90
35894;DHT22;21994;48.204;16.516;2023-07-02T02:34:15;19.60;99.90
35894;DHT22;21994;48.204;16.516;2023-07-02T02:36:40;19.50;99.90
35894;DHT22;21994;48.204;16.516;2023-07-02T02:39:06;19.40;99.90
35894;DHT22;21994;48.204;16.516;2023-07-02T02:41:32;19.50;99.90
35894;DHT22;21994;48.204;16.516;2023-07-02T02:43:58;19.40;99.90
35894;DHT22;21994;48.204;16.516;2023-07-02T02:46:23;19.30;99.90
35894;DHT22;21994;48.204;16.516;2023-07-02T02:48:49;19.30;99.90
35894;DHT22;21994;48.204;16.516;2023-07-02T02:51:16;19.30;99.90
35894;DHT22;21994;48.204;16.516;2023-07-02T02:53:42;19.30;99.90
35894;DHT22;21994;48.204;16.516;2023-07-02T02:56:08;19.40;99.90
35894;DHT22;21994;48.204;16.516;2023-07-02T02:58:34;19.40;99.90
35894;DHT22;21994;48.204;16.516;2023-07-02T03:00:59;19.40;99.90
35894;DHT22;21994;48.204;16.516;2023-07-02T03:03:26;19.40;99.90
35894;DHT22;21994;48.204;16.516;2023-07-02T03:05:52;19.40;99.90
35894;DHT22;21994;48.204;16.516;2023-07-02T03:08:17;19.40;99.90
35894;DHT22;21994;48.204;16.516;2023-07-02T03:10:43;19.40;99.90
35894;DHT22;21994;48.204;16.516;2023-07-02T03:13:09;19.50;99.90
35894;DHT22;21994;48.204;16.516;2023-07-02T03:15:35;19.50;99.90
35894;DHT22;21994;48.204;16.516;2023-07-02T03:18:01;19.60;99.90
35894;DHT22;21994;48.204;16.516;2023-07-02T03:20:26;19.60;99.90
35894;DHT22;21994;48.204;16.516;2023-07-02T03:22:52;19.60;99.90
35894;DHT22;21994;48.204;16.516;2023-07-02T03:25:18;19.60;99.90
35894;DHT22;21994;48.204;16.516;2023-07-02T03:27:43;19.60;99.90
35894;DHT22;21994;48.204;16.516;2023-07-02T03:30:09;19.60;99.90
35894;DHT22;21994;48.204;16.516;2023-07-02T03:32:35;19.60;99.90
35894;DHT22;21994;48.204;16.516;2023-07-02T03:35:01;19.60;99.90
35894;DHT22;21994;48.204;16.516;2023-07-02T03:37:27;19.70;99.90
35894;DHT22;21994;48.204;16.516;2023-07-02T03:39:52;19.70;99.90
35894;DHT22;21994;48.204;16.516;2023-07-02T03:42:18;19.70;99.90
35894;DHT22;21994;48.204;16.516;2023-07-02T03:44:44;19.70;99.90
35894;DHT22;21994;48.204;16.516;2023-07-02T03:47:10;19.80;99.90
35894;DHT22;21994;48.204;16.516;2023-07-02T03:49:37;19.90;99.90
35894;DHT22;21994;48.204;16.516;2023-07-02T03:52:03;19.90;99.90
35894;DHT22;21994;48.204;16.516;2023-07-02T03:54:29;19.90;99.90
35894;DHT22;21994;48.204;16.516;2023-07-02T03:56:55;19.90;99.90
35894;DHT22;21994;48.204;16.516;2023-07-02T03:59:20;20.00;99.90
35894;DHT22;21994;48.204;16.516;2023-07-02T04:01:46;20.00;99.90
35894;DHT22;21994;48.204;16.516;2023-07-02T04:04:12;20.10;99.90
35894;DHT22;21994;48.204;16.516;2023-07-02T04:06:38;20.10;99.90
35894;DHT22;21994;48.204;16.516;2023-07-02T04:09:03;20.20;99.90
35894;DHT22;21994;48.204;16.516;2023-07-02T04:11:29;20.30;99.90
35894;DHT22;21994;48.204;16.516;2023-07-02T04:13:55;20.40;99.90
35894;DHT22;21994;48.204;16.516;2023-07-02T04:16:21;20.40;99.90
35894;DHT22;21994;48.204;16.516;2023-07-02T04:18:46;20.50;99.90
35894;DHT22;21994;48.204;16.516;2023-07-02T04:21:22;20.60;99.90
35894;DHT22;21994;48.204;16.516;2023-07-02T04:23:47;20.60;99.90
35894;DHT22;21994;48.204;16.516;2023-07-02T04:26:13;20.60;99.90
35894;DHT22;21994;48.204;16.516;2023-07-02T04:28:39;20.60;99.90
35894;DHT22;21994;48.204;16.516;2023-07-02T04:31:05;20.50;99.90
35894;DHT22;21994;48.204;16.516;2023-07-02T04:33:30;20.60;99.90
35894;DHT22;21994;48.204;16.516;2023-07-02T04:36:04;20.60;99.90
35894;DHT22;21994;48.204;16.516;2023-07-02T04:38:30;20.60;99.90
35894;DHT22;21994;48.204;16.516;2023-07-02T04:40:55;20.70;99.90
35894;DHT22;21994;48.204;16.516;2023-07-02T04:43:33;20.80;99.90
35894;DHT22;21994;48.204;16.516;2023-07-02T04:45:59;20.90;99.90
35894;DHT22;21994;48.204;16.516;2023-07-02T04:48:25;21.00;99.90
35894;DHT22;21994;48.204;16.516;2023-07-02T04:50:50;21.10;99.90
35894;DHT22;21994;48.204;16.516;2023-07-02T04:53:16;21.20;99.90
35894;DHT22;21994;48.204;16.516;2023-07-02T04:55:43;21.10;99.90
35894;DHT22;21994;48.204;16.516;2023-07-02T04:58:09;21.00;99.90
35894;DHT22;21994;48.204;16.516;2023-07-02T05:00:35;21.00;99.90
35894;DHT22;21994;48.204;16.516;2023-07-02T05:03:00;21.00;99.90
35894;DHT22;21994;48.204;16.516;2023-07-02T05:05:26;21.00;99.90
35894;DHT22;21994;48.204;16.516;2023-07-02T05:07:54;21.00;99.90
35894;DHT22;21994;48.204;16.516;2023-07-02T05:10:20;21.00;99.90
35894;DHT22;21994;48.204;16.516;2023-07-02T05:12:46;20.90;99.90
35894;DHT22;21994;48.204;16.516;2023-07-02T05:15:12;21.00;99.90
35894;DHT22;21994;48.204;16.516;2023-07-02T05:17:38;20.90;99.90
35894;DHT22;21994;48.204;16.516;2023-07-02T05:20:04;20.90;99.90
35894;DHT22;21994;48.204;16.516;2023-07-02T05:22:31;20.90;99.90
35894;DHT22;21994;48.204;16.516;2023-07-02T05:24:57;21.10;99.90
35894;DHT22;21994;48.204;16.516;2023-07-02T05:27:22;21.10;99.90
35894;DHT22;21994;48.204;16.516;2023-07-02T05:29:48;21.10;99.90
35894;DHT22;21994;48.204;16.516;2023-07-02T05:32:14;21.20;99.90
35894;DHT22;21994;48.204;16.516;2023-07-02T05:34:40;21.10;99.90
35894;DHT22;21994;48.204;16.516;2023-07-02T05:37:06;21.20;99.90
35894;DHT22;21994;48.204;16.516;2023-07-02T05:39:33;21.10;99.90
35894;DHT22;21994;48.204;16.516;2023-07-02T05:41:59;21.20;99.90
35894;DHT22;21994;48.204;16.516;2023-07-02T05:44:25;21.20;99.90
35894;DHT22;21994;48.204;16.516;2023-07-02T05:46:51;21.20;99.90
35894;DHT22;21994;48.204;16.516;2023-07-02T05:49:17;21.20;99.90
35894;DHT22;21994;48.204;16.516;2023-07-02T05:51:43;21.30;99.90
35894;DHT22;21994;48.204;16.516;2023-07-02T05:54:09;21.40;99.90
35894;DHT22;21994;48.204;16.516;2023-07-02T05:56:34;21.40;99.90
35894;DHT22;21994;48.204;16.516;2023-07-02T05:59:00;21.20;99.90
35894;DHT22;21994;48.204;16.516;2023-07-02T06:01:26;21.10;99.90
35894;DHT22;21994;48.204;16.516;2023-07-02T06:03:52;21.00;99.90
35894;DHT22;21994;48.204;16.516;2023-07-02T06:06:18;21.00;99.90
35894;DHT22;21994;48.204;16.516;2023-07-02T06:08:50;21.10;99.90
35894;DHT22;21994;48.204;16.516;2023-07-02T06:11:17;21.00;99.90
35894;DHT22;21994;48.204;16.516;2023-07-02T06:13:42;21.00;99.90
35894;DHT22;21994;48.204;16.516;2023-07-02T06:16:11;20.90;99.90
35894;DHT22;21994;48.204;16.516;2023-07-02T06:18:37;20.80;99.90
35894;DHT22;21994;48.204;16.516;2023-07-02T06:21:03;20.80;99.90
35894;DHT22;21994;48.204;16.516;2023-07-02T06:23:38;20.70;99.90
35894;DHT22;21994;48.204;16.516;2023-07-02T06:26:07;20.70;99.90
35894;DHT22;21994;48.204;16.516;2023-07-02T06:28:33;20.70;99.90
35894;DHT22;21994;48.204;16.516;2023-07-02T06:30:59;20.60;99.90
35894;DHT22;21994;48.204;16.516;2023-07-02T06:33:25;20.60;99.90
35894;DHT22;21994;48.204;16.516;2023-07-02T06:35:51;20.50;99.90
35894;DHT22;21994;48.204;16.516;2023-07-02T06:38:16;20.50;99.90
35894;DHT22;21994;48.204;16.516;2023-07-02T06:40:42;20.50;99.90
35894;DHT22;21994;48.204;16.516;2023-07-02T06:43:08;20.50;99.90
35894;DHT22;21994;48.204;16.516;2023-07-02T06:45:34;20.50;99.90
35894;DHT22;21994;48.204;16.516;2023-07-02T06:48:00;20.50;99.90
35894;DHT22;21994;48.204;16.516;2023-07-02T06:50:26;20.60;99.90
35894;DHT22;21994;48.204;16.516;2023-07-02T06:52:52;20.60;99.90
35894;DHT22;21994;48.204;16.516;2023-07-02T06:55:18;20.70;99.90
35894;DHT22;21994;48.204;16.516;2023-07-02T06:57:44;20.80;99.90
35894;DHT22;21994;48.204;16.516;2023-07-02T07:00:13;20.90;99.90
35894;DHT22;21994;48.204;16.516;2023-07-02T07:02:41;21.00;99.90
35894;DHT22;21994;48.204;16.516;2023-07-02T07:05:06;21.00;99.90
35894;DHT22;21994;48.204;16.516;2023-07-02T07:07:32;21.10;99.90
35894;DHT22;21994;48.204;16.516;2023-07-02T07:09:58;21.00;99.90
35894;DHT22;21994;48.204;16.516;2023-07-02T07:12:24;21.00;99.90
35894;DHT22;21994;48.204;16.516;2023-07-02T07:14:50;21.10;99.90
35894;DHT22;21994;48.204;16.516;2023-07-02T07:17:15;21.20;99.90
35894;DHT22;21994;48.204;16.516;2023-07-02T07:19:41;21.40;99.90
35894;DHT22;21994;48.204;16.516;2023-07-02T07:22:07;21.70;99.90
35894;DHT22;21994;48.204;16.516;2023-07-02T07:24:33;22.10;99.90
35894;DHT22;21994;48.204;16.516;2023-07-02T07:26:58;22.40;99.90
35894;DHT22;21994;48.204;16.516;2023-07-02T07:29:24;22.50;99.90
35894;DHT22;21994;48.204;16.516;2023-07-02T07:31:50;22.50;99.90
35894;DHT22;21994;48.204;16.516;2023-07-02T07:34:16;22.50;99.90
35894;DHT22;21994;48.204;16.516;2023-07-02T07:36:41;22.60;99.90
35894;DHT22;21994;48.204;16.516;2023-07-02T07:39:07;22.60;99.90
35894;DHT22;21994;48.204;16.516;2023-07-02T07:41:33;22.80;99.90
35894;DHT22;21994;48.204;16.516;2023-07-02T07:43:59;23.00;99.90
35894;DHT22;21994;48.204;16.516;2023-07-02T07:46:26;23.10;99.90
35894;DHT22;21994;48.204;16.516;2023-07-02T07:48:52;23.20;99.90
35894;DHT22;21994;48.204;16.516;2023-07-02T07:51:18;23.30;99.90
35894;DHT22;21994;48.204;16.516;2023-07-02T07:53:44;23.40;99.90
35894;DHT22;21994;48.204;16.516;2023-07-02T07:56:10;23.50;99.90
35894;DHT22;21994;48.204;16.516;2023-07-02T07:58:36;23.80;99.90
35894;DHT22;21994;48.204;16.516;2023-07-02T08:01:02;23.70;99.90
35894;DHT22;21994;48.204;16.516;2023-07-02T08:03:27;23.90;99.90
35894;DHT22;21994;48.204;16.516;2023-07-02T08:05:53;24.00;99.90
35894;DHT22;21994;48.204;16.516;2023-07-02T08:08:19;24.10;99.90
35894;DHT22;21994;48.204;16.516;2023-07-02T08:10:45;24.20;99.90
35894;DHT22;21994;48.204;16.516;2023-07-02T08:13:11;24.30;99.90
35894;DHT22;21994;48.204;16.516;2023-07-02T08:15:37;24.30;99.90
35894;DHT22;21994;48.204;16.516;2023-07-02T08:18:03;24.50;99.90
35894;DHT22;21994;48.204;16.516;2023-07-02T08:20:29;24.50;99.90
35894;DHT22;21994;48.204;16.516;2023-07-02T08:22:59;24.70;99.90
35894;DHT22;21994;48.204;16.516;2023-07-02T08:25:25;24.90;99.90
35894;DHT22;21994;48.204;16.516;2023-07-02T08:27:52;24.80;99.90
35894;DHT22;21994;48.204;16.516;2023-07-02T08:30:18;24.90;99.90
35894;DHT22;21994;48.204;16.516;2023-07-02T08:32:45;24.90;99.90
35894;DHT22;21994;48.204;16.516;2023-07-02T08:35:11;25.00;99.90
35894;DHT22;21994;48.204;16.516;2023-07-02T08:37:39;25.00;99.90
35894;DHT22;21994;48.204;16.516;2023-07-02T08:40:06;25.30;99.90
35894;DHT22;21994;48.204;16.516;2023-07-02T08:42:35;25.30;99.90
35894;DHT22;21994;48.204;16.516;2023-07-02T08:45:01;25.30;99.30
35894;DHT22;21994;48.204;16.516;2023-07-02T08:47:28;25.20;99.90
35894;DHT22;21994;48.204;16.516;2023-07-02T08:49:54;25.00;99.90
35894;DHT22;21994;48.204;16.516;2023-07-02T08:52:20;25.20;99.50
35894;DHT22;21994;48.204;16.516;2023-07-02T08:54:45;25.40;99.90
35894;DHT22;21994;48.204;16.516;2023-07-02T08:57:11;25.50;99.90
35894;DHT22;21994;48.204;16.516;2023-07-02T08:59:37;25.60;99.90
35894;DHT22;21994;48.204;16.516;2023-07-02T09:02:03;25.90;99.90
35894;DHT22;21994;48.204;16.516;2023-07-02T09:04:30;26.00;99.90
35894;DHT22;21994;48.204;16.516;2023-07-02T09:07:05;26.30;99.90
35894;DHT22;21994;48.204;16.516;2023-07-02T09:09:33;26.40;98.00
35894;DHT22;21994;48.204;16.516;2023-07-02T09:11:59;26.50;99.80
35894;DHT22;21994;48.204;16.516;2023-07-02T09:14:30;26.70;98.90
35894;DHT22;21994;48.204;16.516;2023-07-02T09:17:06;27.00;99.00
35894;DHT22;21994;48.204;16.516;2023-07-02T09:19:34;26.80;97.90
35894;DHT22;21994;48.204;16.516;2023-07-02T09:22:01;26.70;97.70
35894;DHT22;21994;48.204;16.516;2023-07-02T09:24:28;26.70;97.50
35894;DHT22;21994;48.204;16.516;2023-07-02T09:26:55;26.60;97.50
35894;DHT22;21994;48.204;16.516;2023-07-02T09:31:55;26.80;97.10
35894;DHT22;21994;48.204;16.516;2023-07-02T09:34:28;26.90;97.90
35894;DHT22;21994;48.204;16.516;2023-07-02T09:36:59;26.80;97.20
35894;DHT22;21994;48.204;16.516;2023-07-02T09:39:30;26.80;97.60
35894;DHT22;21994;48.204;16.516;2023-07-02T09:41:57;26.50;97.90
35894;DHT22;21994;48.204;16.516;2023-07-02T09:44:33;26.30;97.60
35894;DHT22;21994;48.204;16.516;2023-07-02T09:47:06;26.10;97.30
35894;DHT22;21994;48.204;16.516;2023-07-02T09:49:39;26.10;98.10
35894;DHT22;21994;48.204;16.516;2023-07-02T09:52:35;26.10;97.70
35894;DHT22;21994;48.204;16.516;2023-07-02T09:55:01;26.00;97.50
35894;DHT22;21994;48.204;16.516;2023-07-02T09:57:29;26.30;98.10
35894;DHT22;21994;48.204;16.516;2023-07-02T09:59:58;26.40;97.60
35894;DHT22;21994;48.204;16.516;2023-07-02T10:02:25;26.60;97.10
35894;DHT22;21994;48.204;16.516;2023-07-02T10:04:51;26.20;97.80
35894;DHT22;21994;48.204;16.516;2023-07-02T10:07:30;26.00;97.60
35894;DHT22;21994;48.204;16.516;2023-07-02T10:09:57;26.00;97.60
35894;DHT22;21994;48.204;16.516;2023-07-02T10:12:24;25.80;98.50
35894;DHT22;21994;48.204;16.516;2023-07-02T10:14:52;25.60;98.40
35894;DHT22;21994;48.204;16.516;2023-07-02T10:17:32;25.50;98.00
35894;DHT22;21994;48.204;16.516;2023-07-02T10:19:59;25.40;98.50
35894;DHT22;21994;48.204;16.516;2023-07-02T10:22:53;25.30;98.10
35894;DHT22;21994;48.204;16.516;2023-07-02T10:25:25;25.20;98.30
35894;DHT22;21994;48.204;16.516;2023-07-02T10:27:52;25.20;97.70
35894;DHT22;21994;48.204;16.516;2023-07-02T10:30:17;25.10;98.30
35894;DHT22;21994;48.204;16.516;2023-07-02T10:32:43;25.70;98.30
35894;DHT22;21994;48.204;16.516;2023-07-02T10:35:13;26.80;96.30
35894;DHT22;21994;48.204;16.516;2023-07-02T10:37:42;27.20;96.30
35894;DHT22;21994;48.204;16.516;2023-07-02T10:40:08;27.50;96.80
35894;DHT22;21994;48.204;16.516;2023-07-02T10:42:48;27.80;95.50
35894;DHT22;21994;48.204;16.516;2023-07-02T10:45:14;28.40;94.70
35894;DHT22;21994;48.204;16.516;2023-07-02T10:47:41;28.80;95.20
35894;DHT22;21994;48.204;16.516;2023-07-02T10:50:17;29.20;94.40
35894;DHT22;21994;48.204;16.516;2023-07-02T10:52:44;29.50;94.60
35894;DHT22;21994;48.204;16.516;2023-07-02T10:55:10;30.00;93.80
35894;DHT22;21994;48.204;16.516;2023-07-02T10:57:36;29.80;92.20
35894;DHT22;21994;48.204;16.516;2023-07-02T11:00:05;29.10;92.70
35894;DHT22;21994;48.204;16.516;2023-07-02T11:02:42;28.50;93.30
35894;DHT22;21994;48.204;16.516;2023-07-02T11:05:08;27.70;94.00
35894;DHT22;21994;48.204;16.516;2023-07-02T11:07:38;27.20;94.70
35894;DHT22;21994;48.204;16.516;2023-07-02T11:10:05;26.80;95.70
35894;DHT22;21994;48.204;16.516;2023-07-02T11:12:32;26.50;96.40
35894;DHT22;21994;48.204;16.516;2023-07-02T11:15:08;26.30;96.30
35894;DHT22;21994;48.204;16.516;2023-07-02T11:17:38;26.20;97.20
35894;DHT22;21994;48.204;16.516;2023-07-02T11:20:08;26.10;96.60
35894;DHT22;21994;48.204;16.516;2023-07-02T11:22:35;26.00;97.30
35894;DHT22;21994;48.204;16.516;2023-07-02T11:25:18;26.00;97.00
35894;DHT22;21994;48.204;16.516;2023-07-02T11:27:47;25.70;97.30
35894;DHT22;21994;48.204;16.516;2023-07-02T11:30:13;25.70;97.00
35894;DHT22;21994;48.204;16.516;2023-07-02T11:32:53;25.70;97.10
35894;DHT22;21994;48.204;16.516;2023-07-02T11:35:19;25.70;97.10
35894;DHT22;21994;48.204;16.516;2023-07-02T11:37:46;25.80;96.70
35894;DHT22;21994;48.204;16.516;2023-07-02T11:40:14;25.90;95.90
35894;DHT22;21994;48.204;16.516;2023-07-02T11:42:48;25.70;96.30
35894;DHT22;21994;48.204;16.516;2023-07-02T11:45:16;25.70;96.70
35894;DHT22;21994;48.204;16.516;2023-07-02T11:47:42;25.70;96.30
35894;DHT22;21994;48.204;16.516;2023-07-02T11:50:07;26.00;96.30
35894;DHT22;21994;48.204;16.516;2023-07-02T11:52:34;26.30;96.60
35894;DHT22;21994;48.204;16.516;2023-07-02T11:54:59;26.50;95.70
35894;DHT22;21994;48.204;16.516;2023-07-02T11:57:26;26.70;96.10
35894;DHT22;21994;48.204;16.516;2023-07-02T11:59:51;27.00;95.20
35894;DHT22;21994;48.204;16.516;2023-07-02T12:02:18;27.10;95.50
35894;DHT22;21994;48.204;16.516;2023-07-02T12:04:44;27.20;94.80
35894;DHT22;21994;48.204;16.516;2023-07-02T12:07:10;27.20;94.70
35894;DHT22;21994;48.204;16.516;2023-07-02T12:09:36;27.20;93.90
35894;DHT22;21994;48.204;16.516;2023-07-02T12:12:02;27.30;94.80
35894;DHT22;21994;48.204;16.516;2023-07-02T12:14:28;27.20;93.70
35894;DHT22;21994;48.204;16.516;2023-07-02T12:16:54;27.20;94.20
35894;DHT22;21994;48.204;16.516;2023-07-02T12:19:20;27.20;94.20
35894;DHT22;21994;48.204;16.516;2023-07-02T12:21:46;27.20;93.90
35894;DHT22;21994;48.204;16.516;2023-07-02T12:24:11;27.10;93.30
35894;DHT22;21994;48.204;16.516;2023-07-02T12:26:38;27.30;94.80
35894;DHT22;21994;48.204;16.516;2023-07-02T12:29:05;27.50;95.30
35894;DHT22;21994;48.204;16.516;2023-07-02T12:31:31;27.50;93.80
35894;DHT22;21994;48.204;16.516;2023-07-02T12:33:56;27.20;93.60
35894;DHT22;21994;48.204;16.516;2023-07-02T12:36:23;27.30;93.20
35894;DHT22;21994;48.204;16.516;2023-07-02T12:38:48;27.30;94.30
35894;DHT22;21994;48.204;16.516;2023-07-02T12:41:14;27.30;93.80
35894;DHT22;21994;48.204;16.516;2023-07-02T12:43:40;27.20;93.10
35894;DHT22;21994;48.204;16.516;2023-07-02T12:46:06;26.80;93.00
35894;DHT22;21994;48.204;16.516;2023-07-02T12:48:32;26.30;94.10
35894;DHT22;21994;48.204;16.516;2023-07-02T12:50:59;26.10;93.40
35894;DHT22;21994;48.204;16.516;2023-07-02T12:53:26;26.00;94.10
35894;DHT22;21994;48.204;16.516;2023-07-02T12:55:52;25.80;94.60
35894;DHT22;21994;48.204;16.516;2023-07-02T12:58:18;26.00;94.90
35894;DHT22;21994;48.204;16.516;2023-07-02T13:00:44;26.30;95.00
35894;DHT22;21994;48.204;16.516;2023-07-02T13:03:12;26.70;94.00
35894;DHT22;21994;48.204;16.516;2023-07-02T13:05:38;26.70;94.20
35894;DHT22;21994;48.204;16.516;2023-07-02T13:08:04;26.60;93.80
35894;DHT22;21994;48.204;16.516;2023-07-02T13:10:30;26.70;94.00
35894;DHT22;21994;48.204;16.516;2023-07-02T13:12:56;26.50;94.00
35894;DHT22;21994;48.204;16.516;2023-07-02T13:15:22;26.20;93.80
35894;DHT22;21994;48.204;16.516;2023-07-02T13:17:48;26.00;93.90
35894;DHT22;21994;48.204;16.516;2023-07-02T13:20:14;25.80;93.40
35894;DHT22;21994;48.204;16.516;2023-07-02T13:22:40;25.70;94.00
35894;DHT22;21994;48.204;16.516;2023-07-02T13:25:06;25.40;94.40
35894;DHT22;21994;48.204;16.516;2023-07-02T13:27:32;25.20;94.30
35894;DHT22;21994;48.204;16.516;2023-07-02T13:29:58;25.00;95.20
35894;DHT22;21994;48.204;16.516;2023-07-02T13:32:24;25.00;95.00
35894;DHT22;21994;48.204;16.516;2023-07-02T13:34:50;25.10;94.80
35894;DHT22;21994;48.204;16.516;2023-07-02T13:37:16;25.30;94.60
35894;DHT22;21994;48.204;16.516;2023-07-02T13:39:45;25.50;95.50
35894;DHT22;21994;48.204;16.516;2023-07-02T13:42:11;25.70;94.70
35894;DHT22;21994;48.204;16.516;2023-07-02T13:44:37;25.60;93.60
35894;DHT22;21994;48.204;16.516;2023-07-02T13:47:03;25.60;94.10
35894;DHT22;21994;48.204;16.516;2023-07-02T13:49:29;25.70;94.30
35894;DHT22;21994;48.204;16.516;2023-07-02T13:51:55;25.80;93.80
35894;DHT22;21994;48.204;16.516;2023-07-02T13:54:21;25.80;94.10
35894;DHT22;21994;48.204;16.516;2023-07-02T13:56:47;25.70;93.90
35894;DHT22;21994;48.204;16.516;2023-07-02T13:59:13;25.70;94.60
35894;DHT22;21994;48.204;16.516;2023-07-02T14:01:40;25.80;94.20
35894;DHT22;21994;48.204;16.516;2023-07-02T14:04:06;26.00;94.50
35894;DHT22;21994;48.204;16.516;2023-07-02T14:06:32;26.00;94.50
35894;DHT22;21994;48.204;16.516;2023-07-02T14:08:58;26.00;94.10
35894;DHT22;21994;48.204;16.516;2023-07-02T14:11:25;26.00;94.20
35894;DHT22;21994;48.204;16.516;2023-07-02T14:13:53;26.00;94.00
35894;DHT22;21994;48.204;16.516;2023-07-02T14:16:19;26.10;93.80
35894;DHT22;21994;48.204;16.516;2023-07-02T14:18:45;26.00;94.50
35894;DHT22;21994;48.204;16.516;2023-07-02T14:21:11;25.70;94.40
35894;DHT22;21994;48.204;16.516;2023-07-02T14:23:36;25.80;94.10
35894;DHT22;21994;48.204;16.516;2023-07-02T14:26:02;25.80;94.10
35894;DHT22;21994;48.204;16.516;2023-07-02T14:28:28;25.80;94.10
35894;DHT22;21994;48.204;16.516;2023-07-02T14:30:58;25.70;93.60
35894;DHT22;21994;48.204;16.516;2023-07-02T14:33:25;25.60;93.50
35894;DHT22;21994;48.204;16.516;2023-07-02T14:35:52;25.40;94.20
35894;DHT22;21994;48.204;16.516;2023-07-02T14:38:18;25.40;94.80
35894;DHT22;21994;48.204;16.516;2023-07-02T14:40:44;25.40;94.40
35894;DHT22;21994;48.204;16.516;2023-07-02T14:43:10;25.40;94.50
35894;DHT22;21994;48.204;16.516;2023-07-02T14:45:35;25.50;94.30
35894;DHT22;21994;48.204;16.516;2023-07-02T14:48:08;25.40;92.80
35894;DHT22;21994;48.204;16.516;2023-07-02T14:50:34;25.30;92.90
35894;DHT22;21994;48.204;16.516;2023-07-02T14:53:00;25.20;92.80
35894;DHT22;21994;48.204;16.516;2023-07-02T14:55:26;25.20;93.90
35894;DHT22;21994;48.204;16.516;2023-07-02T14:57:52;25.30;92.60
35894;DHT22;21994;48.204;16.516;2023-07-02T15:00:18;25.10;92.50
35894;DHT22;21994;48.204;16.516;2023-07-02T15:02:44;25.00;92.60
35894;DHT22;21994;48.204;16.516;2023-07-02T15:05:10;24.90;92.50
35894;DHT22;21994;48.204;16.516;2023-07-02T15:07:36;24.90;92.50
35894;DHT22;21994;48.204;16.516;2023-07-02T15:10:01;25.00;91.60
35894;DHT22;21994;48.204;16.516;2023-07-02T15:12:27;24.90;92.30
35894;DHT22;21994;48.204;16.516;2023-07-02T15:14:53;24.90;92.20